createdAt,value
2018-09-08T00:00:56.609Z,22.50
2018-09-08T00:03:24.936Z,20.30
2018-09-08T00:05:53.233Z,21.10
2018-09-08T00:08:21.573Z,20.10
2018-09-08T00:10:49.886Z,20.90
2018-09-08T00:13:18.239Z,21.37
2018-09-08T00:15:52.014Z,21.07
2018-09-08T00:18:25.820Z,22.33
2018-09-08T00:20:59.617Z,22.33
2018-09-08T00:23:33.357Z,22.87
2018-09-08T00:26:07.122Z,21.70
2018-09-08T00:28:39.660Z,21.87
2018-09-08T00:31:11.984Z,22.20
2018-09-08T00:33:40.298Z,23.77
2018-09-08T00:36:08.597Z,25.50
2018-09-08T00:38:36.941Z,20.87
2018-09-08T00:41:05.257Z,23.97
2018-09-08T00:43:33.584Z,22.87
2018-09-08T00:46:02.048Z,21.73
2018-09-08T00:48:30.388Z,23.63
2018-09-08T00:50:59.017Z,23.37
2018-09-08T00:53:27.480Z,20.40
2018-09-08T00:55:55.809Z,19.33
2018-09-08T00:58:24.140Z,19.73
2018-09-08T01:00:52.626Z,21.20
2018-09-08T01:03:21.081Z,20.57
2018-09-08T01:05:49.412Z,22.60
2018-09-08T01:08:17.724Z,18.57
2018-09-08T01:10:46.117Z,19.00
2018-09-08T01:13:14.425Z,19.37
2018-09-08T01:15:42.748Z,20.03
2018-09-08T01:18:11.044Z,20.47
2018-09-08T01:20:39.380Z,20.30
2018-09-08T01:23:09.124Z,20.87
2018-09-08T01:25:37.733Z,19.50
2018-09-08T01:28:06.196Z,23.97
2018-09-08T01:30:34.548Z,27.60
2018-09-08T01:33:03.151Z,25.20
2018-09-08T01:35:31.484Z,27.83
2018-09-08T01:37:59.780Z,27.10
2018-09-08T01:40:28.108Z,27.33
2018-09-08T01:42:56.412Z,26.57
2018-09-08T01:45:24.765Z,26.47
2018-09-08T01:47:53.093Z,28.13
2018-09-08T01:50:21.421Z,28.67
2018-09-08T01:52:49.728Z,26.97
2018-09-08T01:55:18.068Z,24.90
2018-09-08T01:57:46.386Z,23.53
2018-09-08T02:00:14.717Z,29.17
2018-09-08T02:02:43.064Z,26.37
2018-09-08T02:05:11.393Z,25.47
2018-09-08T02:07:39.692Z,24.10
2018-09-08T02:10:08.019Z,40.60
2018-09-08T02:12:36.348Z,22.80
2018-09-08T02:15:04.841Z,31.20
2018-09-08T02:17:33.142Z,28.53
2018-09-08T02:20:01.483Z,31.80
2018-09-08T02:22:29.836Z,27.27
2018-09-08T02:24:58.175Z,25.73
2018-09-08T02:27:26.508Z,27.53
2018-09-08T02:29:54.817Z,26.87
2018-09-08T02:32:23.236Z,21.77
2018-09-08T02:34:51.580Z,23.23
2018-09-08T02:37:19.909Z,24.80
2018-09-08T02:39:48.217Z,20.30
2018-09-08T02:42:16.572Z,17.37
2018-09-08T02:44:44.870Z,17.73
2018-09-08T02:47:13.297Z,18.97
2018-09-08T02:49:53.224Z,18.93
2018-09-08T02:52:20.485Z,20.13
2018-09-08T02:54:47.740Z,24.20
2018-09-08T02:57:15.060Z,23.13
2018-09-08T02:59:42.313Z,23.20
2018-09-08T03:02:09.589Z,22.30
2018-09-08T03:04:36.837Z,20.83
2018-09-08T03:07:19.662Z,20.17
2018-09-08T03:09:46.901Z,25.47
2018-09-08T03:12:14.169Z,24.23
2018-09-08T03:14:41.416Z,18.20
2018-09-08T03:17:08.696Z,20.43
2018-09-08T03:19:35.950Z,22.17
2018-09-08T03:22:03.216Z,26.20
2018-09-08T03:24:30.476Z,24.00
2018-09-08T03:26:57.756Z,22.83
2018-09-08T03:29:25.006Z,18.37
2018-09-08T03:31:52.285Z,24.00
2018-09-08T03:34:19.540Z,20.33
2018-09-08T03:36:46.813Z,25.13
2018-09-08T03:39:14.066Z,24.03
2018-09-08T03:41:41.337Z,18.07
2018-09-08T03:44:08.581Z,22.00
2018-09-08T03:46:35.852Z,18.27
2018-09-08T03:49:03.104Z,18.03
2018-09-08T03:51:30.377Z,17.60
2018-09-08T03:53:57.620Z,16.73
2018-09-08T03:56:24.883Z,23.87
2018-09-08T03:58:52.205Z,26.10
2018-09-08T04:01:19.432Z,20.33
2018-09-08T04:03:47.856Z,20.83
2018-09-08T04:06:16.157Z,18.47
2018-09-08T04:08:44.473Z,16.73
2018-09-08T04:11:12.821Z,15.77
2018-09-08T04:13:41.208Z,16.23
2018-09-08T04:16:09.513Z,18.23
2018-09-08T04:18:37.876Z,18.10
2018-09-08T04:21:06.216Z,20.17
2018-09-08T04:23:34.608Z,24.90
2018-09-08T04:26:03.181Z,16.43
2018-09-08T04:28:32.298Z,19.40
2018-09-08T04:31:01.061Z,19.87
2018-09-08T04:33:29.384Z,19.13
2018-09-08T04:35:57.739Z,22.17
2018-09-08T04:38:26.053Z,20.20
2018-09-08T04:40:54.395Z,28.67
2018-09-08T04:43:22.709Z,25.30
2018-09-08T04:45:51.012Z,18.87
2018-09-08T04:48:19.329Z,17.97
2018-09-08T04:50:47.628Z,22.97
2018-09-08T04:53:15.949Z,19.90
2018-09-08T04:55:44.241Z,19.07
2018-09-08T04:58:12.563Z,17.50
2018-09-08T05:00:40.866Z,24.10
2018-09-08T05:03:09.218Z,23.13
2018-09-08T05:05:37.521Z,19.63
2018-09-08T05:08:05.918Z,22.30
2018-09-08T05:10:34.217Z,21.20
2018-09-08T05:13:02.554Z,24.90
2018-09-08T05:15:30.869Z,20.67
2018-09-08T05:17:59.200Z,16.97
2018-09-08T05:20:27.514Z,17.40
2018-09-08T05:22:55.861Z,18.30
2018-09-08T05:25:24.162Z,15.37
2018-09-08T05:27:52.481Z,19.70
2018-09-08T05:30:20.776Z,19.30
2018-09-08T05:32:49.094Z,16.13
2018-09-08T05:35:17.397Z,21.73
2018-09-08T05:37:45.721Z,15.63
2018-09-08T05:40:14.037Z,20.73
2018-09-08T05:42:42.372Z,23.23
2018-09-08T05:45:10.676Z,18.90
2018-09-08T05:47:39.000Z,22.50
2018-09-08T05:50:07.309Z,21.67
2018-09-08T05:52:35.638Z,18.20
2018-09-08T05:55:03.976Z,23.90
2018-09-08T05:57:32.295Z,19.60
2018-09-08T06:00:00.588Z,17.17
2018-09-08T06:02:28.909Z,18.00
2018-09-08T06:04:57.232Z,17.90
2018-09-08T06:07:25.532Z,20.43
2018-09-08T06:09:53.854Z,17.20
2018-09-08T06:12:22.169Z,17.33
2018-09-08T06:14:50.501Z,15.17
2018-09-08T06:17:18.834Z,18.63
2018-09-08T06:19:47.192Z,18.17
2018-09-08T06:22:15.461Z,17.87
2018-09-08T06:24:43.917Z,17.17
2018-09-08T06:27:12.212Z,23.37
2018-09-08T06:29:40.527Z,20.57
2018-09-08T06:32:08.834Z,18.03
2018-09-08T06:34:37.153Z,20.93
2018-09-08T06:37:05.458Z,20.90
2018-09-08T06:39:33.811Z,18.67
2018-09-08T06:42:02.118Z,18.50
2018-09-08T06:44:30.432Z,17.70
2018-09-08T06:46:58.733Z,16.90
2018-09-08T06:49:27.053Z,20.50
2018-09-08T06:51:55.353Z,16.53
2018-09-08T06:54:23.680Z,21.03
2018-09-08T06:56:51.981Z,17.97
2018-09-08T06:59:20.301Z,20.30
2018-09-08T07:01:48.602Z,19.87
2018-09-08T07:04:16.941Z,18.07
2018-09-08T07:06:45.254Z,17.93
2018-09-08T07:09:13.572Z,18.00
2018-09-08T07:11:41.874Z,17.37
2018-09-08T07:14:10.192Z,18.50
2018-09-08T07:16:38.497Z,18.20
2018-09-08T07:19:06.836Z,16.00
2018-09-08T07:21:35.140Z,18.90
2018-09-08T07:24:03.456Z,16.80
2018-09-08T07:26:31.768Z,17.50
2018-09-08T07:29:00.085Z,18.17
2018-09-08T07:31:28.384Z,19.80
2018-09-08T07:33:56.704Z,16.33
2018-09-08T07:36:25.028Z,18.30
2018-09-08T07:38:53.384Z,18.47
2018-09-08T07:41:21.686Z,19.50
2018-09-08T07:43:50.016Z,16.27
2018-09-08T07:46:18.356Z,19.00
2018-09-08T07:48:46.681Z,17.70
2018-09-08T07:51:15.004Z,19.97
2018-09-08T07:53:43.385Z,18.23
2018-09-08T07:56:11.669Z,16.27
2018-09-08T07:58:39.960Z,13.10
2018-09-08T08:01:08.277Z,12.33
2018-09-08T08:03:36.577Z,13.27
2018-09-08T08:06:04.900Z,13.40
2018-09-08T08:08:33.193Z,13.73
2018-09-08T08:11:01.518Z,13.53
2018-09-08T08:13:29.812Z,13.43
2018-09-08T08:15:58.141Z,12.17
2018-09-08T08:18:26.444Z,11.30
2018-09-08T08:20:54.765Z,9.07
2018-09-08T08:23:23.260Z,9.97
2018-09-08T08:25:51.422Z,10.23
2018-09-08T08:28:19.721Z,9.80
2018-09-08T08:30:48.091Z,8.80
2018-09-08T08:33:16.397Z,10.00
2018-09-08T08:35:44.717Z,8.87
2018-09-08T08:38:13.014Z,8.10
2018-09-08T08:40:41.336Z,8.03
2018-09-08T08:43:09.652Z,6.83
2018-09-08T08:45:37.941Z,6.40
2018-09-08T08:48:06.248Z,6.57
2018-09-08T08:50:46.083Z,5.90
2018-09-08T08:53:25.737Z,5.13
2018-09-08T08:55:54.115Z,4.87
2018-09-08T08:58:22.405Z,5.50
2018-09-08T09:00:50.776Z,5.10
2018-09-08T09:03:19.073Z,4.30
2018-09-08T09:05:47.394Z,4.50
2018-09-08T09:08:16.084Z,3.70
2018-09-08T09:10:44.048Z,2.27
2018-09-08T09:13:12.372Z,1.90
2018-09-08T09:15:40.713Z,1.70
2018-09-08T09:18:09.077Z,1.50
2018-09-08T09:20:48.667Z,1.63
2018-09-08T09:23:31.049Z,1.60
2018-09-08T09:25:59.373Z,1.87
2018-09-08T09:28:27.672Z,2.10
2018-09-08T09:30:55.988Z,2.60
2018-09-08T09:33:24.288Z,2.10
2018-09-08T09:35:52.621Z,1.40
2018-09-08T09:38:20.919Z,2.47
2018-09-08T09:40:49.261Z,1.87
2018-09-08T09:43:17.556Z,2.00
2018-09-08T09:45:45.888Z,1.70
2018-09-08T09:48:14.198Z,1.10
2018-09-08T09:50:42.549Z,1.07
2018-09-08T09:53:10.977Z,1.13
2018-09-08T09:55:39.209Z,1.10
2018-09-08T09:58:07.520Z,1.20
2018-09-08T10:00:41.219Z,1.10
2018-09-08T10:03:09.520Z,0.80
2018-09-08T10:05:37.832Z,1.17
2018-09-08T10:08:06.166Z,1.10
2018-09-08T10:10:34.473Z,0.90
2018-09-08T10:13:02.785Z,0.90
2018-09-08T10:15:31.076Z,0.90
2018-09-08T10:17:59.397Z,0.80
2018-09-08T10:20:27.688Z,0.93
2018-09-08T10:22:56.049Z,0.70
2018-09-08T10:25:24.385Z,1.00
2018-09-08T10:27:52.711Z,0.80
2018-09-08T10:30:21.089Z,1.13
2018-09-08T10:32:49.387Z,0.93
2018-09-08T10:35:17.688Z,1.00
2018-09-08T10:37:46.004Z,0.90
2018-09-08T10:40:14.398Z,0.90
2018-09-08T10:42:43.068Z,0.90
2018-09-08T10:45:11.837Z,1.00
2018-09-08T10:47:40.158Z,0.80
2018-09-08T10:50:09.708Z,0.90
2018-09-08T10:52:42.761Z,0.80
2018-09-08T10:55:11.093Z,0.70
2018-09-08T10:57:39.434Z,0.73
2018-09-08T11:00:08.449Z,1.00
2018-09-08T11:02:37.059Z,0.90
2018-09-08T11:05:05.162Z,0.90
2018-09-08T11:07:33.532Z,0.80
2018-09-08T11:10:01.850Z,0.80
2018-09-08T11:12:30.663Z,0.70
2018-09-08T11:14:58.982Z,0.80
2018-09-08T11:17:27.296Z,0.73
2018-09-08T11:19:55.597Z,0.77
2018-09-08T11:22:23.972Z,0.90
2018-09-08T11:24:52.272Z,0.97
2018-09-08T11:27:20.611Z,1.03
2018-09-08T11:29:48.906Z,0.70
2018-09-08T11:32:17.441Z,0.70
2018-09-08T11:34:45.740Z,0.90
2018-09-08T11:37:14.399Z,0.83
2018-09-08T11:39:42.738Z,0.97
2018-09-08T11:42:11.033Z,0.60
2018-09-08T11:44:39.448Z,0.70
2018-09-08T11:47:07.697Z,0.77
2018-09-08T11:49:36.085Z,0.60
2018-09-08T11:52:04.320Z,0.70
2018-09-08T11:54:32.753Z,0.77
2018-09-08T11:57:01.069Z,0.70
2018-09-08T11:59:29.457Z,0.70
2018-09-08T12:01:57.754Z,0.77
2018-09-08T12:04:26.081Z,0.80
2018-09-08T12:06:54.377Z,0.90
2018-09-08T12:09:22.736Z,0.83
2018-09-08T12:11:51.017Z,0.90
2018-09-08T12:14:19.341Z,0.70
2018-09-08T12:16:47.645Z,0.70
2018-09-08T12:19:16.109Z,0.70
2018-09-08T12:21:44.336Z,0.70
2018-09-08T12:24:12.657Z,0.77
2018-09-08T12:26:40.968Z,0.70
2018-09-08T12:29:09.292Z,0.70
2018-09-08T12:31:37.722Z,0.70
2018-09-08T12:34:06.081Z,0.70
2018-09-08T12:36:34.400Z,0.80
2018-09-08T12:39:02.845Z,0.90
2018-09-08T12:41:31.145Z,0.80
2018-09-08T12:43:59.497Z,0.60
2018-09-08T12:46:27.788Z,0.70
2018-09-08T12:48:56.118Z,0.80
2018-09-08T12:51:24.433Z,0.73
2018-09-08T12:53:52.757Z,0.70
2018-09-08T12:56:21.072Z,0.70
2018-09-08T12:58:49.562Z,0.80
2018-09-08T13:01:17.860Z,0.70
2018-09-08T13:03:46.325Z,0.70
2018-09-08T13:06:14.653Z,0.53
2018-09-08T13:08:42.985Z,0.80
2018-09-08T13:11:11.281Z,0.80
2018-09-08T13:13:39.600Z,0.80
2018-09-08T13:16:07.893Z,0.70
2018-09-08T13:18:36.216Z,0.80
2018-09-08T13:21:05.450Z,0.70
2018-09-08T13:23:33.744Z,0.70
2018-09-08T13:26:02.075Z,0.77
2018-09-08T13:28:30.384Z,0.70
2018-09-08T13:30:58.792Z,0.50
2018-09-08T13:33:27.064Z,0.90
2018-09-08T13:35:55.388Z,0.80
2018-09-08T13:38:23.696Z,0.80
2018-09-08T13:40:52.009Z,0.70
2018-09-08T13:43:20.296Z,0.80
2018-09-08T13:45:48.625Z,0.80
2018-09-08T13:48:16.928Z,0.80
2018-09-08T13:50:45.241Z,0.97
2018-09-08T13:53:13.536Z,0.90
2018-09-08T13:55:41.887Z,0.70
2018-09-08T13:58:10.202Z,0.80
2018-09-08T14:00:38.649Z,0.70
2018-09-08T14:03:07.116Z,0.80
2018-09-08T14:05:35.437Z,0.80
2018-09-08T14:08:06.730Z,0.80
2018-09-08T14:10:35.044Z,0.67
2018-09-08T14:13:03.365Z,0.70
2018-09-08T14:15:31.696Z,0.73
2018-09-08T14:18:00.001Z,0.90
2018-09-08T14:20:28.325Z,0.70
2018-09-08T14:22:56.619Z,0.80
2018-09-08T14:25:24.949Z,0.70
2018-09-08T14:27:53.252Z,0.80
2018-09-08T14:30:21.588Z,0.87
2018-09-08T14:32:49.928Z,0.87
2018-09-08T14:35:18.242Z,0.70
2018-09-08T14:37:46.552Z,0.83
2018-09-08T14:40:15.060Z,0.80
2018-09-08T14:42:43.353Z,0.83
2018-09-08T14:45:11.677Z,0.80
2018-09-08T14:47:40.084Z,0.90
2018-09-08T14:50:08.501Z,0.87
2018-09-08T14:52:36.793Z,0.90
2018-09-08T14:55:05.357Z,0.70
2018-09-08T14:57:33.649Z,0.70
2018-09-08T15:00:01.970Z,0.90
2018-09-08T15:02:30.273Z,0.80
2018-09-08T15:04:58.615Z,0.80
2018-09-08T15:07:26.901Z,0.90
2018-09-08T15:09:55.216Z,1.53
2018-09-08T15:12:23.512Z,1.27
2018-09-08T15:14:51.803Z,0.80
2018-09-08T15:17:20.121Z,1.00
2018-09-08T15:19:48.409Z,0.90
2018-09-08T15:22:16.760Z,0.90
2018-09-08T15:24:45.061Z,0.70
2018-09-08T15:27:13.369Z,0.90
2018-09-08T15:29:41.661Z,0.90
2018-09-08T15:32:09.976Z,0.87
2018-09-08T15:34:38.271Z,0.93
2018-09-08T15:37:06.582Z,0.77
2018-09-08T15:39:34.880Z,0.90
2018-09-08T15:42:03.476Z,0.83
2018-09-08T15:44:31.777Z,0.70
2018-09-08T15:47:00.097Z,0.97
2018-09-08T15:49:28.401Z,1.00
2018-09-08T15:51:56.719Z,0.87
2018-09-08T15:54:25.012Z,0.90
2018-09-08T15:56:53.374Z,0.80
2018-09-08T15:59:21.664Z,0.90
2018-09-08T16:01:49.984Z,0.80
2018-09-08T16:04:18.300Z,0.90
2018-09-08T16:06:46.627Z,0.80
2018-09-08T16:09:14.917Z,1.00
2018-09-08T16:11:43.228Z,0.90
2018-09-08T16:14:11.754Z,0.90
2018-09-08T16:16:40.069Z,0.87
2018-09-08T16:19:08.384Z,1.00
2018-09-08T16:21:36.813Z,0.80
2018-09-08T16:24:05.292Z,0.83
2018-09-08T16:26:33.608Z,0.70
2018-09-08T16:29:01.901Z,0.90
2018-09-08T16:31:30.212Z,0.93
2018-09-08T16:33:58.507Z,1.03
2018-09-08T16:36:26.828Z,0.97
2018-09-08T16:38:55.157Z,0.93
2018-09-08T16:41:23.472Z,0.90
2018-09-08T16:43:51.769Z,0.93
2018-09-08T16:46:20.082Z,0.77
2018-09-08T16:48:48.379Z,1.00
2018-09-08T16:51:16.698Z,0.77
2018-09-08T16:53:44.993Z,0.90
2018-09-08T16:56:13.328Z,1.00
2018-09-08T16:58:41.620Z,0.73
2018-09-08T17:01:09.937Z,0.70
2018-09-08T17:03:38.232Z,0.80
2018-09-08T17:06:06.221Z,1.10
2018-09-08T17:08:34.516Z,1.00
2018-09-08T17:11:02.821Z,0.90
2018-09-08T17:13:31.165Z,0.90
2018-09-08T17:15:59.465Z,0.90
2018-09-08T17:18:27.781Z,0.80
2018-09-08T17:20:56.076Z,0.87
2018-09-08T17:23:24.383Z,1.00
2018-09-08T17:25:52.681Z,0.80
2018-09-08T17:28:21.066Z,0.70
2018-09-08T17:30:49.346Z,0.80
2018-09-08T17:33:17.656Z,0.97
2018-09-08T17:35:45.957Z,1.00
2018-09-08T17:38:14.283Z,1.00
2018-09-08T17:40:42.586Z,1.27
2018-09-08T17:43:10.912Z,1.10
2018-09-08T17:45:39.209Z,1.30
2018-09-08T17:48:07.897Z,1.30
2018-09-08T17:50:36.213Z,1.10
2018-09-08T17:53:04.534Z,1.23
2018-09-08T17:55:32.850Z,1.20
2018-09-08T17:58:01.167Z,1.47
2018-09-08T18:00:29.527Z,1.50
2018-09-08T18:02:57.856Z,1.23
2018-09-08T18:05:26.157Z,1.20
2018-09-08T18:07:54.480Z,1.00
2018-09-08T18:10:22.777Z,1.30
2018-09-08T18:12:51.093Z,1.30
2018-09-08T18:15:19.388Z,1.30
2018-09-08T18:17:47.705Z,1.20
2018-09-08T18:20:16.005Z,1.40
2018-09-08T18:22:44.321Z,1.57
2018-09-08T18:25:12.617Z,2.07
2018-09-08T18:27:40.940Z,2.53
2018-09-08T18:30:09.269Z,2.50
2018-09-08T18:32:37.590Z,2.33
2018-09-08T18:35:06.448Z,2.60
2018-09-08T18:37:34.809Z,2.33
2018-09-08T18:40:03.117Z,2.20
2018-09-08T18:42:31.448Z,1.80
2018-09-08T18:44:59.762Z,1.90
2018-09-08T18:47:28.097Z,2.40
2018-09-08T18:49:56.409Z,2.10
2018-09-08T18:52:24.710Z,2.30
2018-09-08T18:54:53.036Z,1.70
2018-09-08T18:57:21.353Z,1.60
2018-09-08T18:59:49.671Z,1.50
2018-09-08T19:02:17.967Z,1.20
2018-09-08T19:04:46.288Z,1.50
2018-09-08T19:07:14.593Z,1.70
2018-09-08T19:09:42.933Z,1.53
2018-09-08T19:12:11.220Z,1.60
2018-09-08T19:14:44.808Z,1.80
2018-09-08T19:17:13.106Z,1.70
2018-09-08T19:19:41.416Z,1.70
2018-09-08T19:22:09.709Z,1.87
2018-09-08T19:24:43.181Z,2.20
2018-09-08T19:27:11.845Z,1.77
2018-09-08T19:29:45.541Z,1.60
2018-09-08T19:32:13.832Z,1.50
2018-09-08T19:34:42.149Z,1.70
2018-09-08T19:37:10.451Z,2.53
2018-09-08T19:39:38.772Z,3.00
2018-09-08T19:42:07.074Z,2.80
2018-09-08T19:44:35.389Z,2.53
2018-09-08T19:47:09.172Z,2.83
2018-09-08T19:49:37.497Z,2.17
2018-09-08T19:52:09.655Z,2.23
2018-09-08T19:54:37.969Z,2.20
2018-09-08T19:57:11.625Z,1.90
2018-09-08T19:59:39.944Z,2.00
2018-09-08T20:05:11.106Z,1.70
2018-09-08T20:07:39.414Z,1.70
2018-09-08T20:10:07.770Z,1.80
2018-09-08T20:12:36.085Z,1.67
2018-09-08T20:15:04.642Z,1.70
2018-09-08T20:17:32.941Z,1.70
2018-09-08T20:20:01.278Z,1.80
2018-09-08T20:22:30.618Z,1.80
2018-09-08T20:24:58.960Z,2.20
2018-09-08T20:27:27.278Z,2.03
2018-09-08T20:29:55.602Z,2.60
2018-09-08T20:32:23.909Z,3.10
2018-09-08T20:34:52.229Z,3.50
2018-09-08T20:37:20.541Z,3.30
2018-09-08T20:39:48.884Z,2.80
2018-09-08T20:42:17.205Z,2.60
2018-09-08T20:44:45.542Z,2.57
2018-09-08T20:47:13.873Z,2.77
2018-09-08T20:49:42.214Z,2.60
2018-09-08T20:52:10.518Z,3.00
2018-09-08T20:54:38.849Z,3.17
2018-09-08T20:57:07.254Z,2.80
2018-09-08T20:59:35.583Z,3.10
2018-09-08T21:02:03.930Z,2.63
2018-09-08T21:04:32.255Z,2.60
2018-09-08T21:07:00.581Z,2.70
2018-09-08T21:09:28.902Z,2.50
2018-09-08T21:11:57.214Z,2.20
2018-09-08T21:14:25.546Z,2.60
2018-09-08T21:16:53.893Z,1.77
2018-09-08T21:19:22.226Z,1.77
2018-09-08T21:21:50.554Z,1.57
2018-09-08T21:24:18.854Z,1.97
2018-09-08T21:26:47.181Z,1.90
2018-09-08T21:29:15.494Z,1.60
2018-09-08T21:31:43.817Z,1.57
2018-09-08T21:34:12.118Z,1.83
2018-09-08T21:36:40.437Z,2.00
2018-09-08T21:39:09.574Z,1.60
2018-09-08T21:41:37.980Z,1.90
2018-09-08T21:44:06.450Z,2.00
2018-09-08T21:46:34.936Z,1.87
2018-09-08T21:49:03.271Z,1.80
2018-09-08T21:51:31.607Z,1.73
2018-09-08T21:53:59.913Z,2.00
2018-09-08T21:56:28.249Z,2.00
2018-09-08T21:58:56.550Z,2.00
2018-09-08T22:01:25.514Z,2.40
2018-09-08T22:03:54.514Z,2.20
2018-09-08T22:06:23.595Z,2.17
2018-09-08T22:08:52.070Z,1.67
2018-09-08T22:11:20.567Z,2.07
2018-09-08T22:13:48.889Z,2.00
2018-09-08T22:16:17.518Z,2.10
2018-09-08T22:18:45.895Z,1.97
2018-09-08T22:21:14.231Z,1.80
2018-09-08T22:23:42.537Z,2.33
2018-09-08T22:26:10.870Z,1.90
2018-09-08T22:28:39.184Z,2.13
2018-09-08T22:31:07.519Z,2.50
2018-09-08T22:33:35.855Z,2.23
2018-09-08T22:36:04.183Z,1.93
2018-09-08T22:38:32.503Z,2.00
2018-09-08T22:41:00.829Z,1.90
2018-09-08T22:43:29.153Z,1.70
2018-09-08T22:45:57.509Z,1.80
2018-09-08T22:48:25.866Z,1.87
2018-09-08T22:50:54.175Z,1.67
2018-09-08T22:53:22.499Z,1.70
2018-09-08T22:55:50.811Z,1.70
2018-09-08T22:58:19.141Z,1.90
2018-09-08T23:00:47.454Z,1.90
2018-09-08T23:03:15.782Z,1.90
2018-09-08T23:05:44.088Z,2.60
2018-09-08T23:08:12.426Z,2.17
2018-09-08T23:10:40.746Z,2.80
2018-09-08T23:13:09.075Z,2.13
2018-09-08T23:15:37.395Z,2.03
2018-09-08T23:18:05.662Z,2.40
2018-09-08T23:20:33.974Z,2.20
2018-09-08T23:23:02.310Z,2.13
2018-09-08T23:25:30.622Z,1.93
2018-09-08T23:27:58.950Z,2.00
2018-09-08T23:30:27.260Z,2.27
2018-09-08T23:32:55.594Z,2.20
2018-09-08T23:35:23.908Z,2.10
2018-09-08T23:37:52.249Z,2.00
2018-09-08T23:40:20.596Z,2.23
2018-09-08T23:42:48.922Z,1.80
2018-09-08T23:45:17.235Z,2.20
2018-09-08T23:47:46.193Z,2.10
2018-09-08T23:50:14.521Z,2.27
2018-09-08T23:52:42.873Z,2.20
2018-09-08T23:55:11.613Z,2.00
2018-09-08T23:57:39.946Z,1.83
